Parkland, FL

6:33 AM EDT on July 04, 2015 (GMT -0400)
Amateur Radio AB4YB | | Change Station
CLOSE
Current Station
Personal Weather Station
Location: Parkland, FL
Elevation: 27 ft
Nearby Weather Stations

Elev 27 ft 26.33 °N, 80.22 °W | Updated 1 second ago

Clear
Clear
75.7 °F
Feels Like 75 °F
N
0.0
Wind Variable Wind from North
Gusts 0.0 mph

Today
High -- | Low -- °F
--% Chance of Precip.
Yesterday
High -- | Low -- °F
Precip. -- in
6:32 AM 8:17 PM
Waning Gibbous, 93% visible
Pressure 30.07 in
Visibility 10.0 miles
Clouds Clear
Heat Index 75 °F
Dew Point 74 °F
Humidity 96%
Rainfall 0.49 in
Snow Depth Not available.
UV 0 out of 12
Pollen 4.40 out of 12
Air Quality Not available.
Flu Activity Not available.
METAR KPMP 040953Z AUTO 13003KT 10SM CLR 28/24 A3007 RMK AO2 SLP183 T02830244

More Conditions Fewer Conditions

Pressure 30.07 in
Visibility 10.0 miles
Clouds Clear
Heat Index 75 °F
Dew Point 74 °F
Humidity 96%
Rainfall 0.49 in
Snow Depth Not available.
UV 0 out of 12
Pollen 4.40 out of 12
Air Quality Not available.
Flu Activity Not available.
METAR KPMP 040953Z AUTO 13003KT 10SM CLR 28/24 A3007 RMK AO2 SLP183 T02830244

More Conditions Fewer Conditions

Nowcast | as of 6:21 am EDT on July 4, 2015

Scattered showers and perhaps a thunderstorm will move onshore Southeast Florida, mainly from Fort Lauderdale to West Palm Beach. Additional showers and isolated thunderstorms over the Atlantic waters extending to the Bahama bank will move northwest and approach the coast later this morning. These showers will be accompanied by brief heavy rains, gusty winds to 25 mph and occasional lightning strikes.

×

10-Day Weather Forecast

×

Almanac

Astronomy

Jul. 04, 2015 Rise Set
Actual Time
Civil Twilight
Nautical Twilight
Astronomical Twilight
Moon
Length of Visible Light
Length of Day
Tomorrow will be .
, % of the Moon is Illuminated

Today's Extremes

State Highs State Lows

Community

WunderPhotos

Upload Photos

1,834,935 photos uploaded!

WunderBlogs® & News

Nearby

Air Quality

  Air Quality AQ Index Pollutant
Not available.

Snow Depth

Station Depth Elevation

Earthquake Activity

City Distance Mag. Time & Date
Minimum magnitude displayed is 2.5.

Coastal Water Temperatures

Place Temperature

Stations

Nearby Weather Stations

Station Location Temp. Windchill Dew Point Humidity Wind Precip. Elev Updated Type